Time;durP1;ratioP1;P1;durP2;ratioP2;P2;SDS_P1;SDS_P2;PMS_P1;PMS_P2;Temp;Humidity;BMP_temperature;BMP_pressure;BME280_temperature;BME280_humidity;BME280_pressure;Samples;Min_cycle;Max_cycle;Signal;HPM_P1;HPM_P2
2022/08/22 05:02:43;;;;;;;9.50;4.78;;;14.80;99.90;;;;;;5400746;23;20125;-71
2022/08/22 05:05:16;;;;;;;12.18;6.00;;;14.80;99.90;;;;;;4978161;28;20058;-72
2022/08/22 05:07:48;;;;;;;11.93;5.63;;;14.90;99.90;;;;;;4966440;28;20146;-71
2022/08/22 05:10:26;;;;;;;10.90;5.88;;;14.90;99.90;;;;;;4982705;28;20189;-71
2022/08/22 05:13:01;;;;;;;10.13;5.40;;;15.00;99.90;;;;;;4983603;28;20023;-71
2022/08/22 05:15:34;;;;;;;11.27;5.47;;;15.10;99.90;;;;;;4983204;28;20026;-72
2022/08/22 05:18:06;;;;;;;9.63;5.45;;;15.20;99.90;;;;;;4983372;28;20178;-70
2022/08/22 05:20:33;;;;;;;10.07;5.10;;;15.20;99.90;;;;;;4987301;28;20094;-70
2022/08/22 05:23:12;;;;;;;8.43;5.05;;;15.40;99.90;;;;;;4986894;28;20029;-70
2022/08/22 05:25:41;;;;;;;7.88;4.40;;;15.50;99.90;;;;;;4985119;28;20235;-70
2022/08/22 05:28:33;;;;;;;7.82;4.75;;;15.50;99.90;;;;;;4986748;28;20050;-71
2022/08/22 05:31:03;;;;;;;12.05;4.90;;;15.50;99.90;;;;;;4962557;28;20134;-71
2022/08/22 05:33:47;;;;;;;12.15;5.07;;;15.60;99.90;;;;;;4986659;28;20035;-71
2022/08/22 05:36:30;;;;;;;10.77;5.75;;;15.70;99.90;;;;;;4969098;28;20196;-72
2022/08/22 05:39:03;;;;;;;10.13;5.30;;;15.90;99.90;;;;;;4986419;28;20047;-70
2022/08/22 05:41:36;;;;;;;10.25;4.93;;;15.90;99.90;;;;;;4986588;28;20026;-71
2022/08/22 05:44:03;;;;;;;7.60;4.60;;;16.10;99.90;;;;;;4985138;28;20034;-71
2022/08/22 05:46:39;;;;;;;8.68;4.63;;;16.10;99.90;;;;;;4984855;28;20102;-73
2022/08/22 05:49:31;;;;;;;8.07;4.70;;;16.20;99.90;;;;;;4986066;28;20130;-74
2022/08/22 05:52:06;;;;;;;9.93;4.72;;;16.30;99.90;;;;;;4985835;28;20106;-71
2022/08/22 05:54:36;;;;;;;9.68;4.68;;;16.40;99.90;;;;;;4968944;28;20031;-71
2022/08/22 05:57:13;;;;;;;7.10;4.10;;;16.50;99.90;;;;;;4985971;28;20026;-71
2022/08/22 05:59:42;;;;;;;7.53;3.83;;;16.60;99.90;;;;;;4986377;28;20022;-70
2022/08/22 06:02:19;;;;;;;6.45;4.07;;;16.70;99.90;;;;;;4985587;28;20248;-72
2022/08/22 06:05:14;;;;;;;7.30;3.50;;;16.90;99.90;;;;;;4986229;28;20049;-72
2022/08/22 06:10:43;;;;;;;7.63;3.88;;;17.20;99.90;;;;;;4966456;29;20087;-71
2022/08/22 06:13:17;;;;;;;9.60;3.80;;;17.30;99.90;;;;;;4949228;29;20035;-72
2022/08/22 06:15:51;;;;;;;6.07;3.28;;;17.40;99.90;;;;;;4966509;29;20225;-71
2022/08/22 06:18:35;;;;;;;7.20;4.13;;;17.50;99.90;;;;;;4933236;29;20035;-70
2022/08/22 06:21:30;;;;;;;9.43;3.60;;;17.60;99.90;;;;;;4966135;29;20023;-71
2022/08/22 06:23:59;;;;;;;9.23;3.92;;;17.70;99.90;;;;;;4966438;29;20078;-72
2022/08/22 06:26:34;;;;;;;7.20;3.90;;;17.60;99.90;;;;;;4966636;29;20027;-71
2022/08/22 06:29:06;;;;;;;7.57;3.90;;;17.70;99.90;;;;;;4951907;28;20090;-70
2022/08/22 06:31:47;;;;;;;8.93;3.90;;;17.80;99.40;;;;;;4965731;29;20035;-71
2022/08/22 06:34:31;;;;;;;6.20;3.53;;;17.80;99.30;;;;;;4948858;29;20277;-70
2022/08/22 06:37:00;;;;;;;6.07;3.72;;;18.00;99.00;;;;;;4966557;29;20098;-72
2022/08/22 06:39:32;;;;;;;6.43;3.42;;;18.10;98.60;;;;;;4966093;29;20038;-69
2022/08/22 06:42:07;;;;;;;7.22;4.00;;;18.20;97.90;;;;;;4965785;29;20332;-70
2022/08/22 06:44:51;;;;;;;9.15;3.58;;;18.30;98.20;;;;;;4964833;29;20027;-72
2022/08/22 06:47:35;;;;;;;7.18;3.97;;;18.50;97.70;;;;;;4965375;29;20324;-72
2022/08/22 06:50:15;;;;;;;8.90;3.50;;;18.60;97.20;;;;;;4968882;28;20031;-72
2022/08/22 06:53:10;;;;;;;6.85;3.22;;;18.80;96.80;;;;;;4948817;29;20031;-71
2022/08/22 06:55:40;;;;;;;7.22;3.88;;;18.80;96.30;;;;;;4964546;29;20046;-72
2022/08/22 06:58:50;;;;;;;8.30;4.05;;;18.90;95.80;;;;;;4948451;29;20031;-72
2022/08/22 07:01:23;;;;;;;5.78;3.60;;;19.00;95.50;;;;;;4946869;28;20027;-72
2022/08/22 07:03:52;;;;;;;7.18;3.80;;;19.00;95.50;;;;;;4965775;29;20066;-75
2022/08/22 07:06:29;;;;;;;8.52;3.45;;;19.20;95.10;;;;;;4964647;29;20071;-71
2022/08/22 07:08:56;;;;;;;8.32;3.78;;;19.30;94.80;;;;;;4968112;28;20039;-73
2022/08/22 07:11:26;;;;;;;7.63;3.60;;;19.50;94.10;;;;;;4965149;28;20035;-71
2022/08/22 07:14:33;;;;;;;7.72;3.00;;;19.60;93.80;;;;;;4965924;29;20023;-72
2022/08/22 07:17:02;;;;;;;4.88;2.90;;;19.80;92.40;;;;;;4926100;29;20031;-71
2022/08/22 07:19:33;;;;;;;6.88;3.58;;;19.90;92.30;;;;;;4964874;29;20035;-72
2022/08/22 07:22:09;;;;;;;9.00;3.28;;;20.10;91.60;;;;;;4965497;28;20039;-72
2022/08/22 07:24:35;;;;;;;6.80;2.90;;;20.30;91.00;;;;;;4965506;28;20049;-72
2022/08/22 07:27:52;;;;;;;5.15;2.50;;;20.50;90.50;;;;;;4961424;28;20058;-72
2022/08/22 07:31:00;;;;;;;4.97;2.63;;;20.70;90.10;;;;;;4911805;28;20060;-73
2022/08/22 07:33:49;;;;;;;5.93;3.00;;;20.80;89.40;;;;;;4870144;29;20040;-72
2022/08/22 07:36:38;;;;;;;5.32;3.00;;;21.00;87.70;;;;;;4885124;29;20089;-73
2022/08/22 07:39:19;;;;;;;6.60;2.45;;;21.10;86.30;;;;;;4885663;29;20029;-73
2022/08/22 07:42:10;;;;;;;6.00;3.10;;;21.30;85.80;;;;;;4885610;29;20066;-74
2022/08/22 07:45:02;;;;;;;7.45;3.30;;;21.40;85.10;;;;;;4885493;29;20044;-75
2022/08/22 07:48:07;;;;;;;5.80;3.13;;;21.60;84.80;;;;;;4875749;29;20175;-71
2022/08/22 07:51:04;;;;;;;6.22;2.70;;;21.60;83.50;;;;;;4850865;29;20112;-71
2022/08/22 07:53:40;;;;;;;6.63;3.15;;;21.70;83.10;;;;;;4832576;29;20573;-73
2022/08/22 07:56:20;;;;;;;6.63;3.13;;;21.80;82.80;;;;;;4860288;29;20033;-71
2022/08/22 07:59:08;;;;;;;8.38;3.20;;;22.00;82.90;;;;;;4885689;29;20025;-72
2022/08/22 08:01:36;;;;;;;7.85;3.75;;;22.10;82.10;;;;;;4868622;29;20035;-71
2022/08/22 08:04:09;;;;;;;6.13;3.17;;;22.20;82.10;;;;;;4885587;29;20037;-72
2022/08/22 08:06:36;;;;;;;6.15;3.17;;;22.20;81.90;;;;;;4869847;29;20093;-71
2022/08/22 08:09:03;;;;;;;10.77;3.38;;;22.30;81.70;;;;;;4895082;29;20286;-71
2022/08/22 08:11:34;;;;;;;7.22;3.25;;;22.30;81.80;;;;;;4924513;29;20027;-71
2022/08/22 08:14:06;;;;;;;9.25;3.38;;;22.50;81.30;;;;;;4939848;29;20092;-71
2022/08/22 08:16:46;;;;;;;5.78;3.28;;;22.60;81.50;;;;;;4924007;29;20136;-71
2022/08/22 08:19:15;;;;;;;6.28;3.60;;;22.60;81.30;;;;;;4924596;29;20091;-70
2022/08/22 08:21:48;;;;;;;7.35;3.58;;;22.70;80.40;;;;;;4925077;29;20035;-71
2022/08/22 08:24:19;;;;;;;7.00;3.35;;;22.70;80.70;;;;;;4924415;29;20072;-71
2022/08/22 08:30:08;;;;;;;9.00;3.10;;;22.90;80.60;;;;;;4897945;29;20044;-69
2022/08/22 08:32:36;;;;;;;8.30;3.22;;;22.80;80.40;;;;;;4922675;29;20032;-72
2022/08/22 08:35:21;;;;;;;13.15;3.83;;;22.90;80.60;;;;;;4923312;29;20047;-71
2022/08/22 08:38:10;;;;;;;6.53;3.80;;;23.00;80.70;;;;;;4905200;29;20016;-70
2022/08/22 08:40:55;;;;;;;8.65;3.83;;;23.10;80.10;;;;;;4905549;29;20044;-72
2022/08/22 08:43:47;;;;;;;8.05;3.45;;;23.20;79.10;;;;;;4919454;29;20076;-69
2022/08/22 08:46:31;;;;;;;5.97;3.95;;;23.30;79.20;;;;;;4905325;29;20036;-70
2022/08/22 08:49:35;;;;;;;6.80;3.35;;;23.50;79.30;;;;;;4910416;29;20016;-70
2022/08/22 08:52:26;;;;;;;7.20;3.60;;;23.60;78.80;;;;;;4909935;29;20032;-70
2022/08/22 08:55:01;;;;;;;7.53;3.70;;;23.70;78.50;;;;;;4905686;29;20088;-73
2022/08/22 08:57:45;;;;;;;9.52;3.70;;;23.80;78.10;;;;;;4905210;29;20198;-70
2022/08/22 09:00:20;;;;;;;8.45;3.60;;;23.80;78.00;;;;;;4904816;29;20033;-69
2022/08/22 09:02:46;;;;;;;10.10;3.28;;;23.90;77.80;;;;;;4928701;29;20086;-69
2022/08/22 09:05:48;;;;;;;9.18;3.40;;;24.10;77.70;;;;;;4944929;28;20094;-70
2022/08/22 09:08:50;;;;;;;6.95;3.42;;;24.10;76.90;;;;;;4947794;29;20053;-69
2022/08/22 09:11:47;;;;;;;22.65;4.22;;;24.10;77.10;;;;;;4965519;28;20042;-69
2022/08/22 09:14:37;;;;;;;37.85;4.93;;;24.40;76.60;;;;;;4961959;29;20269;-70
2022/08/22 09:17:18;;;;;;;14.80;3.88;;;24.50;76.20;;;;;;4954137;29;20252;-69
2022/08/22 09:20:03;;;;;;;16.58;4.57;;;24.70;75.30;;;;;;4933087;29;20204;-70
2022/08/22 09:23:04;;;;;;;9.93;3.50;;;24.80;76.20;;;;;;4949913;29;20058;-69
2022/08/22 09:25:44;;;;;;;9.70;3.47;;;25.00;75.00;;;;;;4949317;29;20038;-71
2022/08/22 09:28:16;;;;;;;4.72;3.30;;;25.10;75.00;;;;;;4952641;29;20035;-70
2022/08/22 09:31:07;;;;;;;5.78;3.42;;;25.20;74.30;;;;;;4954580;28;20023;-70
2022/08/22 09:33:55;;;;;;;6.50;3.30;;;25.40;73.60;;;;;;4953570;29;20036;-70
2022/08/22 09:36:30;;;;;;;5.93;3.30;;;25.50;73.60;;;;;;4952286;29;20281;-69
2022/08/22 09:39:04;;;;;;;4.97;3.17;;;25.50;73.10;;;;;;4952128;29;20027;-70
2022/08/22 09:42:01;;;;;;;4.50;2.80;;;25.50;72.50;;;;;;4951160;29;20081;-71
2022/08/22 09:44:39;;;;;;;4.47;2.97;;;25.60;72.80;;;;;;4950125;29;20058;-70
2022/08/22 09:47:34;;;;;;;6.35;2.85;;;25.60;72.60;;;;;;4953706;29;20042;-71
2022/08/22 09:50:16;;;;;;;4.95;3.08;;;25.70;72.70;;;;;;4943563;29;20364;-72
2022/08/22 09:53:07;;;;;;;5.28;3.30;;;25.80;72.20;;;;;;4955211;28;20027;-72
2022/08/22 09:55:50;;;;;;;6.20;3.35;;;25.70;72.20;;;;;;4952680;29;20027;-73
2022/08/22 09:58:40;;;;;;;8.68;3.10;;;25.70;72.60;;;;;;4950266;29;20325;-72
2022/08/22 10:01:38;;;;;;;6.35;3.03;;;26.00;72.10;;;;;;4938982;28;20055;-72
2022/08/22 10:04:13;;;;;;;4.35;2.90;;;26.00;71.90;;;;;;4912459;29;20055;-73
2022/08/22 10:07:09;;;;;;;5.30;2.72;;;26.10;68.80;;;;;;4935760;29;20212;-74
2022/08/22 10:09:56;;;;;;;5.30;2.70;;;26.20;68.70;;;;;;4955418;29;20042;-78
2022/08/22 10:12:30;;;;;;;3.75;2.80;;;26.30;67.20;;;;;;4956448;28;20031;-76
2022/08/22 10:15:07;;;;;;;4.72;2.88;;;26.40;67.40;;;;;;4957269;29;20035;-73
2022/08/22 10:18:02;;;;;;;5.77;2.80;;;26.30;67.90;;;;;;4951957;29;20035;-75
2022/08/22 10:20:51;;;;;;;4.00;2.70;;;26.40;67.20;;;;;;4955931;29;20082;-75
2022/08/22 10:23:28;;;;;;;3.92;2.20;;;26.50;65.30;;;;;;4931605;29;20043;-74
2022/08/22 10:26:14;;;;;;;3.28;2.30;;;26.60;64.50;;;;;;4953634;29;20075;-75
2022/08/22 10:29:22;;;;;;;4.43;2.70;;;26.80;63.00;;;;;;4944432;29;20325;-76
2022/08/22 10:32:24;;;;;;;4.60;2.33;;;26.80;63.50;;;;;;4953907;28;20093;-75
2022/08/22 10:34:56;;;;;;;4.32;2.40;;;26.90;63.70;;;;;;4940284;28;20316;-73
2022/08/22 10:37:43;;;;;;;5.25;2.75;;;26.90;63.70;;;;;;4956073;28;20035;-73
2022/08/22 10:40:40;;;;;;;5.05;2.70;;;26.80;64.30;;;;;;4949217;28;20026;-73
2022/08/22 10:43:50;;;;;;;3.90;2.55;;;26.80;64.50;;;;;;4962740;28;20340;-72
2022/08/22 10:46:22;;;;;;;4.72;2.33;;;27.00;63.20;;;;;;4972542;28;20034;-72
2022/08/22 10:48:58;;;;;;;5.30;2.40;;;27.10;62.90;;;;;;4977224;28;20299;-72
2022/08/22 10:52:05;;;;;;;3.78;2.38;;;27.20;61.20;;;;;;4957096;28;20082;-72
2022/08/22 10:55:08;;;;;;;7.03;2.53;;;27.40;61.80;;;;;;4971336;28;20103;-73
2022/08/22 10:58:03;;;;;;;5.03;2.67;;;27.80;61.30;;;;;;4939022;28;20076;-74
2022/08/22 11:00:44;;;;;;;5.70;2.50;;;28.10;59.40;;;;;;4956704;28;20026;-73
2022/08/22 11:03:40;;;;;;;6.68;2.95;;;28.40;59.10;;;;;;4949789;29;20047;-73
2022/08/22 11:06:24;;;;;;;4.95;2.75;;;28.90;58.50;;;;;;4936131;29;20036;-74
2022/08/22 11:09:29;;;;;;;4.28;2.28;;;29.10;59.40;;;;;;4946311;29;20035;-71
2022/08/22 11:12:29;;;;;;;5.97;2.97;;;29.40;58.40;;;;;;4956042;29;20035;-72
2022/08/22 11:15:35;;;;;;;4.50;2.40;;;29.80;58.30;;;;;;4947275;28;20113;-71
2022/08/22 11:18:25;;;;;;;4.63;2.58;;;30.20;58.00;;;;;;4955853;29;20364;-77
2022/08/22 11:21:19;;;;;;;3.80;2.60;;;30.20;58.20;;;;;;4956886;29;20049;-74
2022/08/22 11:24:15;;;;;;;4.05;2.50;;;30.40;57.70;;;;;;4954059;29;20035;-70
2022/08/22 11:26:57;;;;;;;3.97;2.30;;;30.60;57.00;;;;;;4954985;29;20039;-71
2022/08/22 11:30:02;;;;;;;6.22;2.50;;;30.80;56.40;;;;;;4955683;29;20058;-73
2022/08/22 11:33:00;;;;;;;5.72;2.22;;;32.10;55.90;;;;;;4951295;29;20050;-72
2022/08/22 11:35:27;;;;;;;9.85;2.63;;;33.40;53.10;;;;;;4955316;29;20043;-71
2022/08/22 11:38:28;;;;;;;4.03;2.45;;;34.60;51.70;;;;;;4953151;29;20078;-71
2022/08/22 11:41:17;;;;;;;5.00;2.03;;;35.30;50.70;;;;;;4952844;29;20040;-71
2022/08/22 11:44:05;;;;;;;3.42;2.20;;;35.40;50.20;;;;;;4956160;28;20054;-71
2022/08/22 11:46:32;;;;;;;3.67;1.80;;;35.90;49.40;;;;;;4954923;29;20058;-70
2022/08/22 11:48:58;;;;;;;4.00;2.10;;;36.70;48.70;;;;;;4947234;29;20039;-70
2022/08/22 11:52:01;;;;;;;3.53;2.00;;;37.10;47.60;;;;;;4953846;28;20053;-71
2022/08/22 11:54:44;;;;;;;4.25;2.10;;;36.20;47.60;;;;;;4958154;29;20031;-70
2022/08/22 11:57:23;;;;;;;4.45;2.47;;;34.90;48.50;;;;;;4962815;28;20206;-70
2022/08/22 12:00:14;;;;;;;6.55;2.35;;;33.60;50.20;;;;;;4963339;28;20235;-70
2022/08/22 12:02:55;;;;;;;3.28;2.28;;;32.90;52.10;;;;;;4973415;28;20404;-71
2022/08/22 12:05:39;;;;;;;5.78;2.53;;;32.00;52.00;;;;;;4982246;28;20344;-70
2022/08/22 12:08:19;;;;;;;4.43;2.40;;;32.00;52.50;;;;;;4982546;28;20038;-70
2022/08/22 12:11:06;;;;;;;4.00;2.30;;;33.80;51.30;;;;;;4951546;29;20035;-70
2022/08/22 12:13:53;;;;;;;4.05;2.60;;;34.50;49.60;;;;;;4962978;29;20094;-70
2022/08/22 12:16:36;;;;;;;;;;;34.20;50.10;;;;;;4963211;29;20063;-69
2022/08/22 12:19:34;;;;;;;4.03;2.30;;;33.80;50.20;;;;;;4963291;29;19910;-69
2022/08/22 12:22:21;;;;;;;3.95;2.50;;;33.10;50.80;;;;;;4963087;29;20035;-71
2022/08/22 12:25:00;;;;;;;4.65;2.35;;;32.40;51.70;;;;;;4946092;29;20174;-69
2022/08/22 12:27:32;;;;;;;3.80;2.70;;;31.60;53.20;;;;;;4961408;28;20052;-70
2022/08/22 12:30:25;;;;;;;4.05;2.38;;;30.90;53.90;;;;;;4963331;28;20026;-70
2022/08/22 12:33:16;;;;;;;3.60;2.00;;;30.20;54.40;;;;;;4981890;28;20030;-69
2022/08/22 12:35:59;;;;;;;3.83;2.30;;;30.10;54.90;;;;;;4981710;28;20308;-70
2022/08/22 12:39:02;;;;;;;2.92;2.22;;;30.10;54.70;;;;;;4981993;28;20097;-69
2022/08/22 12:42:01;;;;;;;3.17;1.70;;;32.40;53.00;;;;;;4981853;28;20069;-70
2022/08/22 12:44:41;;;;;;;3.97;1.95;;;35.60;49.10;;;;;;4945083;28;20166;-70
2022/08/22 12:47:25;;;;;;;2.65;1.92;;;38.20;46.80;;;;;;4965036;28;20317;-71
2022/08/22 12:50:26;;;;;;;2.83;1.85;;;38.40;45.50;;;;;;4982308;28;20038;-70
2022/08/22 12:53:31;;;;;;;3.35;2.00;;;36.80;46.20;;;;;;4952239;28;20194;-70
2022/08/22 12:56:15;;;;;;;5.75;2.03;;;35.30;47.80;;;;;;4938847;28;20117;-69
2022/08/22 12:59:11;;;;;;;3.78;1.88;;;34.00;48.90;;;;;;4981367;28;20053;-71
2022/08/22 13:01:45;;;;;;;3.45;2.10;;;33.00;49.80;;;;;;4981500;28;20130;-69
2022/08/22 13:04:14;;;;;;;3.05;1.85;;;32.10;50.40;;;;;;4981761;28;20069;-69
2022/08/22 13:07:09;;;;;;;3.13;1.88;;;31.80;50.90;;;;;;4977940;28;20057;-69
2022/08/22 13:09:44;;;;;;;5.28;2.13;;;31.70;50.50;;;;;;4965713;28;20105;-69
2022/08/22 13:12:13;;;;;;;3.38;1.70;;;31.40;50.70;;;;;;4981795;28;20041;-68
2022/08/22 13:14:42;;;;;;;3.88;1.90;;;31.20;50.80;;;;;;4981146;28;20565;-69
2022/08/22 13:17:15;;;;;;;3.17;2.03;;;30.70;51.20;;;;;;4981955;28;20038;-69
2022/08/22 13:19:58;;;;;;;3.33;1.77;;;30.60;52.30;;;;;;4981103;28;20240;-68
2022/08/22 13:22:27;;;;;;;4.20;2.20;;;30.50;52.50;;;;;;4980847;28;20038;-68
2022/08/22 13:25:16;;;;;;;3.63;2.03;;;30.50;52.50;;;;;;4981992;28;20323;-69
2022/08/22 13:27:48;;;;;;;3.55;1.77;;;30.40;52.50;;;;;;4973712;28;20412;-70
2022/08/22 13:30:26;;;;;;;4.03;1.73;;;30.20;52.90;;;;;;4981812;28;20047;-70
2022/08/22 13:33:00;;;;;;;4.63;2.10;;;30.30;52.80;;;;;;4964805;28;20257;-70
2022/08/22 13:35:32;;;;;;;5.03;1.83;;;30.40;53.20;;;;;;4981260;28;20046;-70
2022/08/22 13:38:08;;;;;;;4.05;2.00;;;30.50;52.50;;;;;;4982002;28;20089;-70
2022/08/22 13:40:36;;;;;;;3.67;2.25;;;30.50;52.60;;;;;;4983284;28;20324;-73
2022/08/22 13:43:04;;;;;;;;;;;31.80;51.60;;;;;;4985883;28;20293;-75
2022/08/22 13:45:31;;;;;;;4.20;1.85;;;34.20;49.40;;;;;;4984505;28;19971;-70
2022/08/22 13:48:06;;;;;;;4.35;1.80;;;37.10;46.70;;;;;;4966201;28;20051;-70
2022/08/22 13:50:35;;;;;;;4.75;2.00;;;39.30;44.80;;;;;;4984692;28;20045;-72
2022/08/22 13:53:09;;;;;;;3.88;1.58;;;41.10;42.90;;;;;;4985457;28;20050;-71
2022/08/22 13:55:44;;;;;;;3.50;1.70;;;42.20;42.30;;;;;;4984886;28;20092;-71
2022/08/22 13:58:21;;;;;;;3.58;1.45;;;43.80;41.50;;;;;;4985255;28;20035;-71
2022/08/22 14:01:23;;;;;;;3.53;1.75;;;40.90;42.10;;;;;;4985054;28;20201;-70
2022/08/22 14:03:59;;;;;;;3.85;1.77;;;38.60;44.10;;;;;;4984832;28;20038;-71
2022/08/22 14:06:29;;;;;;;3.45;1.80;;;36.70;45.50;;;;;;4984408;28;20031;-72
2022/08/22 14:09:02;;;;;;;2.90;1.70;;;35.60;46.60;;;;;;4985053;28;20042;-72
2022/08/22 14:11:41;;;;;;;2.90;1.73;;;34.80;47.80;;;;;;4965083;29;20375;-71
2022/08/22 14:14:08;;;;;;;3.28;2.00;;;37.20;46.70;;;;;;4965235;29;20035;-69
2022/08/22 14:17:00;;;;;;;5.53;2.33;;;40.00;44.20;;;;;;4964684;29;20043;-69
2022/08/22 14:19:40;;;;;;;3.38;1.70;;;42.30;42.20;;;;;;4964020;29;20047;-70
2022/08/22 14:22:08;;;;;;;2.50;1.50;;;44.20;41.30;;;;;;4966885;28;20031;-72
2022/08/22 14:24:50;;;;;;;3.20;1.60;;;45.60;40.10;;;;;;4983755;28;20089;-71
2022/08/22 14:27:26;;;;;;;3.10;1.60;;;46.60;39.60;;;;;;4984776;28;20038;-71
2022/08/22 14:29:57;;;;;;;2.92;1.33;;;46.50;39.10;;;;;;4985022;28;20034;-71
2022/08/22 14:32:33;;;;;;;4.50;1.50;;;46.50;38.60;;;;;;4984278;28;20026;-71
2022/08/22 14:35:12;;;;;;;3.23;1.23;;;46.40;38.50;;;;;;4984640;28;20034;-71
2022/08/22 14:37:43;;;;;;;2.30;1.58;;;47.10;38.50;;;;;;4984255;28;20107;-72
2022/08/22 14:40:27;;;;;;;2.88;1.50;;;47.30;37.80;;;;;;4984246;28;20267;-71
2022/08/22 14:43:20;;;;;;;2.22;1.30;;;47.80;38.10;;;;;;4984289;28;20042;-70
2022/08/22 14:45:59;;;;;;;3.22;1.40;;;45.90;38.50;;;;;;4983681;28;20030;-71
2022/08/22 14:49:05;;;;;;;2.72;1.38;;;45.10;39.10;;;;;;4983539;28;20121;-71
2022/08/22 14:51:31;;;;;;;2.50;1.60;;;45.50;38.80;;;;;;4982649;28;20066;-70
2022/08/22 14:54:13;;;;;;;2.75;1.40;;;45.80;38.70;;;;;;4984132;28;20070;-72
2022/08/22 14:56:40;;;;;;;3.30;1.40;;;46.10;38.60;;;;;;4983523;28;20362;-71
2022/08/22 14:59:11;;;;;;;2.10;1.27;;;46.50;38.50;;;;;;4984030;28;20018;-70
2022/08/22 15:02:01;;;;;;;3.85;1.25;;;47.20;38.00;;;;;;4983391;28;20046;-70
2022/08/22 15:04:35;;;;;;;2.30;1.30;;;47.30;38.00;;;;;;4983356;28;20078;-70
2022/08/22 15:07:01;;;;;;;3.53;1.42;;;47.60;37.30;;;;;;4983840;28;20035;-70
2022/08/22 15:09:31;;;;;;;4.07;1.60;;;46.50;37.50;;;;;;4965718;28;20035;-69
2022/08/22 15:11:58;;;;;;;1.88;1.40;;;46.40;37.60;;;;;;4983873;28;20027;-70
2022/08/22 15:14:35;;;;;;;4.03;1.67;;;45.60;37.70;;;;;;4982961;28;20045;-69
2022/08/22 15:17:05;;;;;;;2.83;1.38;;;45.00;38.10;;;;;;4983363;28;20313;-71
2022/08/22 15:19:43;;;;;;;2.53;1.48;;;46.00;37.70;;;;;;4983325;28;20039;-70
2022/08/22 15:22:35;;;;;;;3.58;1.88;;;44.80;37.90;;;;;;4983382;28;20039;-69
2022/08/22 15:25:06;;;;;;;2.35;1.67;;;45.20;38.40;;;;;;4981440;28;20113;-71
2022/08/22 15:27:41;;;;;;;2.83;1.45;;;46.50;37.90;;;;;;4982825;28;20034;-70
2022/08/22 15:30:10;;;;;;;2.80;1.45;;;46.60;37.60;;;;;;4983466;28;20270;-70
2022/08/22 15:32:38;;;;;;;2.67;1.23;;;47.00;37.20;;;;;;4983039;28;20039;-69
2022/08/22 15:35:08;;;;;;;2.78;1.10;;;46.80;37.80;;;;;;4983241;28;20094;-71
2022/08/22 15:38:02;;;;;;;3.55;1.92;;;47.30;37.30;;;;;;4965786;28;20062;-71
2022/08/22 15:40:31;;;;;;;2.85;1.30;;;48.00;36.90;;;;;;4983085;28;20038;-72
2022/08/22 15:42:57;;;;;;;2.88;1.70;;;48.30;36.50;;;;;;4983224;28;20110;-70
2022/08/22 15:45:29;;;;;;;3.30;1.70;;;47.20;37.00;;;;;;4982920;28;20064;-76
2022/08/22 15:47:55;;;;;;;3.20;1.67;;;45.80;37.60;;;;;;4983299;28;20030;-72
2022/08/22 15:50:53;;;;;;;3.80;1.63;;;45.50;37.90;;;;;;4982466;28;20066;-73
2022/08/22 15:53:29;;;;;;;4.28;2.20;;;45.60;37.70;;;;;;4981746;28;20050;-74
2022/08/22 15:56:10;;;;;;;4.67;2.27;;;45.30;38.10;;;;;;4983343;28;20058;-73
2022/08/22 15:58:39;;;;;;;7.05;3.45;;;44.70;38.20;;;;;;4982722;28;20121;-72
2022/08/22 16:01:24;;;;;;;4.72;2.28;;;44.90;38.30;;;;;;4982931;28;20061;-74
2022/08/22 16:04:06;;;;;;;2.92;1.42;;;45.20;38.70;;;;;;4982859;28;20023;-73
2022/08/22 16:06:49;;;;;;;4.65;2.05;;;44.70;38.30;;;;;;4982293;28;20037;-74
2022/08/22 16:09:37;;;;;;;5.57;2.00;;;44.90;38.80;;;;;;4965670;28;20041;-72
2022/08/22 16:12:09;;;;;;;2.70;1.60;;;45.70;38.10;;;;;;4982848;28;20027;-72
2022/08/22 16:14:35;;;;;;;3.00;1.90;;;45.10;38.60;;;;;;4982349;28;20064;-75
2022/08/22 16:17:07;;;;;;;2.58;1.70;;;45.00;38.30;;;;;;4982599;28;20054;-74
2022/08/22 16:19:34;;;;;;;5.32;2.85;;;44.70;38.00;;;;;;4982268;28;20313;-75
2022/08/22 16:22:05;;;;;;;4.07;2.30;;;45.10;39.50;;;;;;4965711;28;20094;-76
2022/08/22 16:24:55;;;;;;;2.17;1.42;;;44.00;39.20;;;;;;4945308;28;20317;-73
2022/08/22 16:27:24;;;;;;;4.90;1.77;;;42.40;39.90;;;;;;4981558;28;20031;-75
2022/08/22 16:30:00;;;;;;;3.85;1.80;;;41.00;40.00;;;;;;4982216;28;20042;-74
2022/08/22 16:32:27;;;;;;;2.83;1.77;;;39.70;42.00;;;;;;4981906;28;20140;-74
2022/08/22 16:34:52;;;;;;;4.73;2.07;;;38.10;42.50;;;;;;4982153;28;20229;-74
2022/08/22 16:37:24;;;;;;;3.05;1.80;;;37.50;43.40;;;;;;4981553;28;20086;-74
2022/08/22 16:39:52;;;;;;;4.55;2.08;;;36.80;43.70;;;;;;4982047;28;20050;-74
2022/08/22 16:42:20;;;;;;;6.50;2.25;;;37.00;44.30;;;;;;4964527;28;20269;-73
2022/08/22 16:45:15;;;;;;;6.75;2.75;;;37.80;44.50;;;;;;4982087;28;20118;-73
2022/08/22 16:47:51;;;;;;;3.08;1.83;;;37.90;43.70;;;;;;4975312;28;20050;-74
2022/08/22 16:50:25;;;;;;;3.65;1.90;;;38.80;42.00;;;;;;4981542;28;20054;-74
2022/08/22 16:52:56;;;;;;;2.90;2.00;;;39.70;43.00;;;;;;4982029;28;20041;-73
2022/08/22 16:55:28;;;;;;;5.70;1.60;;;39.40;41.30;;;;;;4981258;28;20046;-74
2022/08/22 16:58:07;;;;;;;6.15;2.00;;;39.20;40.90;;;;;;4981745;28;20092;-73
2022/08/22 17:00:51;;;;;;;4.18;1.73;;;37.90;43.70;;;;;;4981259;28;20042;-72
2022/08/22 17:03:37;;;;;;;3.60;1.73;;;36.50;44.40;;;;;;4981511;28;20399;-74
2022/08/22 17:06:34;;;;;;;4.30;2.45;;;35.40;44.20;;;;;;4982025;28;20038;-73
2022/08/22 17:09:20;;;;;;;2.90;1.63;;;34.30;45.20;;;;;;4981853;28;20098;-74
2022/08/22 17:12:17;;;;;;;4.68;2.03;;;33.80;46.10;;;;;;4981934;28;20608;-74
2022/08/22 17:15:24;;;;;;;4.05;1.80;;;33.20;48.70;;;;;;4983892;28;20034;-75
2022/08/22 17:18:18;;;;;;;6.22;2.28;;;32.90;48.40;;;;;;4968539;28;20071;-73
2022/08/22 17:21:02;;;;;;;4.13;1.90;;;32.40;49.40;;;;;;4985851;28;20035;-73
2022/08/22 17:23:43;;;;;;;4.43;1.95;;;32.20;48.60;;;;;;4985428;28;20023;-74
2022/08/22 17:26:27;;;;;;;3.35;2.20;;;31.80;49.20;;;;;;4985723;28;20036;-72
2022/08/22 17:29:53;;;;;;;4.07;1.98;;;31.70;50.50;;;;;;4971643;28;20054;-76
2022/08/22 17:32:36;;;;;;;4.93;2.10;;;31.40;50.60;;;;;;4890943;29;20532;-73
2022/08/22 17:35:55;;;;;;;4.88;1.83;;;31.10;49.70;;;;;;4875460;29;20044;-73
2022/08/22 17:38:28;;;;;;;4.60;2.00;;;30.70;49.70;;;;;;4850819;29;20113;-75
2022/08/22 17:40:58;;;;;;;3.88;2.30;;;30.40;50.90;;;;;;4889397;29;20036;-73
2022/08/22 17:43:50;;;;;;;5.70;2.25;;;30.10;51.50;;;;;;4906508;29;20044;-74
2022/08/22 17:46:33;;;;;;;3.90;2.10;;;29.90;50.90;;;;;;4906906;29;20033;-73
2022/08/22 17:49:10;;;;;;;5.32;2.08;;;29.70;51.20;;;;;;4906811;29;20072;-73
2022/08/22 17:51:47;;;;;;;3.42;1.85;;;29.30;51.80;;;;;;4906522;29;20055;-73
2022/08/22 17:54:20;;;;;;;6.90;2.10;;;29.20;52.80;;;;;;4907120;29;20037;-73
2022/08/22 17:56:56;;;;;;;4.28;2.03;;;29.10;53.00;;;;;;4906738;29;20364;-75
2022/08/22 17:59:25;;;;;;;4.28;2.35;;;29.00;53.30;;;;;;4906414;29;20035;-73
2022/08/22 18:02:25;;;;;;;3.75;1.90;;;28.80;53.40;;;;;;4906365;29;20072;-73
2022/08/22 18:05:18;;;;;;;5.00;2.10;;;28.60;53.80;;;;;;4906859;29;20100;-73
2022/08/22 18:07:50;;;;;;;6.00;2.30;;;28.40;54.80;;;;;;4906614;29;20033;-75
2022/08/22 18:10:16;;;;;;;5.25;2.33;;;28.20;54.80;;;;;;4948046;29;20221;-73
2022/08/22 18:12:58;;;;;;;4.85;2.33;;;27.90;54.20;;;;;;4946698;29;20024;-71
2022/08/22 18:15:50;;;;;;;4.18;2.08;;;27.70;54.50;;;;;;4946185;29;20082;-72
2022/08/22 18:18:29;;;;;;;5.00;2.10;;;27.50;55.00;;;;;;4945582;29;20047;-72
2022/08/22 18:21:42;;;;;;;4.75;2.30;;;27.40;65.90;;;;;;4945538;29;20039;-73
2022/08/22 18:24:10;;;;;;;4.88;2.35;;;27.20;65.00;;;;;;4931983;29;20066;-72
2022/08/22 18:26:49;;;;;;;3.72;2.13;;;27.10;65.40;;;;;;4964721;28;20062;-75
2022/08/22 18:29:23;;;;;;;5.22;2.50;;;26.90;64.50;;;;;;4948476;29;20027;-75
2022/08/22 18:32:28;;;;;;;4.65;2.47;;;26.80;64.40;;;;;;4948503;29;20074;-75
2022/08/22 18:35:15;;;;;;;3.88;2.30;;;26.60;64.40;;;;;;4922824;29;20027;-74
2022/08/22 18:38:05;;;;;;;5.15;2.42;;;26.40;64.50;;;;;;4946006;29;20102;-74
2022/08/22 18:40:48;;;;;;;4.22;2.25;;;26.20;64.80;;;;;;4945780;29;20036;-75
2022/08/22 18:43:35;;;;;;;4.93;2.65;;;26.10;65.10;;;;;;4946446;29;20521;-75
2022/08/22 18:46:23;;;;;;;4.30;2.20;;;26.00;65.10;;;;;;4946162;29;20460;-75
2022/08/22 18:48:48;;;;;;;5.78;2.40;;;25.80;65.20;;;;;;4945359;29;20099;-74
2022/08/22 18:51:37;;;;;;;4.32;1.98;;;25.60;65.10;;;;;;4945996;29;20023;-75
2022/08/22 18:54:12;;;;;;;4.95;2.20;;;25.50;65.00;;;;;;4929694;29;20032;-75
2022/08/22 18:57:06;;;;;;;3.03;2.08;;;25.40;65.20;;;;;;4929027;29;20040;-75
2022/08/22 19:00:06;;;;;;;5.53;2.45;;;25.40;65.30;;;;;;4944795;29;20028;-74
2022/08/22 19:02:53;;;;;;;4.85;2.47;;;25.20;65.50;;;;;;4954404;29;20163;-74
2022/08/22 19:05:32;;;;;;;3.72;2.25;;;25.10;65.70;;;;;;4947660;29;20051;-74
2022/08/22 19:12:02;;;;;;;6.80;2.70;;;25.00;65.90;;;;;;4963503;29;20320;-75
2022/08/22 19:15:11;;;;;;;4.07;2.38;;;24.80;66.30;;;;;;4947750;29;20061;-76